sensor_id;sensor_type;location;lat;lon;timestamp;P1;durP1;ratioP1;P2;durP2;ratioP2
4424;SDS011;2225;53.568;13.266;2023-02-15T00:01:59;53.80;;;24.47;;
4424;SDS011;2225;53.568;13.266;2023-02-15T00:04:27;59.27;;;26.47;;
4424;SDS011;2225;53.568;13.266;2023-02-15T00:07:13;57.90;;;26.20;;
4424;SDS011;2225;53.568;13.266;2023-02-15T00:09:41;67.23;;;27.47;;
4424;SDS011;2225;53.568;13.266;2023-02-15T00:12:09;60.27;;;26.43;;
4424;SDS011;2225;53.568;13.266;2023-02-15T00:14:36;69.67;;;25.93;;
4424;SDS011;2225;53.568;13.266;2023-02-15T00:17:03;59.30;;;27.13;;
4424;SDS011;2225;53.568;13.266;2023-02-15T00:19:30;56.50;;;24.30;;
4424;SDS011;2225;53.568;13.266;2023-02-15T00:21:57;70.03;;;27.07;;
4424;SDS011;2225;53.568;13.266;2023-02-15T00:24:24;63.63;;;26.37;;
4424;SDS011;2225;53.568;13.266;2023-02-15T00:26:51;68.00;;;27.83;;
4424;SDS011;2225;53.568;13.266;2023-02-15T00:29:18;56.03;;;25.07;;
4424;SDS011;2225;53.568;13.266;2023-02-15T00:31:45;54.83;;;24.73;;
4424;SDS011;2225;53.568;13.266;2023-02-15T00:34:14;60.67;;;23.80;;
4424;SDS011;2225;53.568;13.266;2023-02-15T00:36:49;48.03;;;25.97;;
4424;SDS011;2225;53.568;13.266;2023-02-15T00:39:17;60.67;;;26.37;;
4424;SDS011;2225;53.568;13.266;2023-02-15T00:41:45;58.13;;;27.30;;
4424;SDS011;2225;53.568;13.266;2023-02-15T00:44:13;55.10;;;24.90;;
4424;SDS011;2225;53.568;13.266;2023-02-15T00:46:40;53.03;;;25.50;;
4424;SDS011;2225;53.568;13.266;2023-02-15T00:49:08;62.47;;;25.17;;
4424;SDS011;2225;53.568;13.266;2023-02-15T00:51:36;55.13;;;25.00;;
4424;SDS011;2225;53.568;13.266;2023-02-15T00:54:04;52.20;;;23.63;;
4424;SDS011;2225;53.568;13.266;2023-02-15T00:56:30;59.50;;;26.50;;
4424;SDS011;2225;53.568;13.266;2023-02-15T00:58:57;59.20;;;27.30;;
4424;SDS011;2225;53.568;13.266;2023-02-15T01:01:24;56.00;;;25.17;;
4424;SDS011;2225;53.568;13.266;2023-02-15T01:03:52;54.97;;;25.40;;
4424;SDS011;2225;53.568;13.266;2023-02-15T01:06:19;54.00;;;26.57;;
4424;SDS011;2225;53.568;13.266;2023-02-15T01:08:46;62.33;;;25.73;;
4424;SDS011;2225;53.568;13.266;2023-02-15T01:11:15;61.30;;;26.70;;
4424;SDS011;2225;53.568;13.266;2023-02-15T01:13:50;50.83;;;25.20;;
4424;SDS011;2225;53.568;13.266;2023-02-15T01:16:19;61.60;;;26.80;;
4424;SDS011;2225;53.568;13.266;2023-02-15T01:18:47;58.30;;;24.70;;
4424;SDS011;2225;53.568;13.266;2023-02-15T01:21:19;51.53;;;25.50;;
4424;SDS011;2225;53.568;13.266;2023-02-15T01:23:47;55.10;;;25.30;;
4424;SDS011;2225;53.568;13.266;2023-02-15T01:26:14;56.63;;;25.27;;
4424;SDS011;2225;53.568;13.266;2023-02-15T01:28:43;60.87;;;26.80;;
4424;SDS011;2225;53.568;13.266;2023-02-15T01:31:13;55.40;;;25.97;;
4424;SDS011;2225;53.568;13.266;2023-02-15T01:33:44;57.17;;;26.67;;
4424;SDS011;2225;53.568;13.266;2023-02-15T01:36:12;48.80;;;25.27;;
4424;SDS011;2225;53.568;13.266;2023-02-15T01:38:40;67.50;;;29.27;;
4424;SDS011;2225;53.568;13.266;2023-02-15T01:41:07;62.07;;;26.83;;
4424;SDS011;2225;53.568;13.266;2023-02-15T01:43:50;65.30;;;26.73;;
4424;SDS011;2225;53.568;13.266;2023-02-15T01:46:27;62.33;;;27.80;;
4424;SDS011;2225;53.568;13.266;2023-02-15T01:49:08;65.07;;;28.23;;
4424;SDS011;2225;53.568;13.266;2023-02-15T01:51:43;58.37;;;25.87;;
4424;SDS011;2225;53.568;13.266;2023-02-15T01:54:20;61.87;;;27.53;;
4424;SDS011;2225;53.568;13.266;2023-02-15T01:56:52;57.00;;;25.00;;
4424;SDS011;2225;53.568;13.266;2023-02-15T01:59:21;65.07;;;25.73;;
4424;SDS011;2225;53.568;13.266;2023-02-15T02:01:54;60.60;;;25.90;;
4424;SDS011;2225;53.568;13.266;2023-02-15T02:04:26;58.53;;;27.83;;
4424;SDS011;2225;53.568;13.266;2023-02-15T02:07:02;50.63;;;25.40;;
4424;SDS011;2225;53.568;13.266;2023-02-15T02:09:30;64.03;;;26.90;;
4424;SDS011;2225;53.568;13.266;2023-02-15T02:11:58;53.97;;;25.97;;
4424;SDS011;2225;53.568;13.266;2023-02-15T02:14:26;55.37;;;27.60;;
4424;SDS011;2225;53.568;13.266;2023-02-15T02:17:06;57.70;;;27.50;;
4424;SDS011;2225;53.568;13.266;2023-02-15T02:23:13;69.10;;;30.50;;
4424;SDS011;2225;53.568;13.266;2023-02-15T02:32:03;63.07;;;27.47;;
4424;SDS011;2225;53.568;13.266;2023-02-15T02:35:03;63.67;;;26.87;;
4424;SDS011;2225;53.568;13.266;2023-02-15T02:37:51;58.93;;;26.20;;
4424;SDS011;2225;53.568;13.266;2023-02-15T02:40:25;52.10;;;25.80;;
4424;SDS011;2225;53.568;13.266;2023-02-15T02:43:21;55.30;;;26.07;;
4424;SDS011;2225;53.568;13.266;2023-02-15T02:48:33;63.63;;;26.40;;
4424;SDS011;2225;53.568;13.266;2023-02-15T02:51:01;63.53;;;25.07;;
4424;SDS011;2225;53.568;13.266;2023-02-15T02:53:28;53.93;;;24.23;;
4424;SDS011;2225;53.568;13.266;2023-02-15T02:56:09;58.50;;;27.57;;
4424;SDS011;2225;53.568;13.266;2023-02-15T02:58:53;57.93;;;26.93;;
4424;SDS011;2225;53.568;13.266;2023-02-15T03:01:44;52.37;;;26.10;;
4424;SDS011;2225;53.568;13.266;2023-02-15T03:04:43;65.60;;;28.13;;
4424;SDS011;2225;53.568;13.266;2023-02-15T03:07:18;56.50;;;25.80;;
4424;SDS011;2225;53.568;13.266;2023-02-15T03:09:50;58.17;;;27.10;;
4424;SDS011;2225;53.568;13.266;2023-02-15T03:12:23;62.73;;;28.60;;
4424;SDS011;2225;53.568;13.266;2023-02-15T03:15:01;51.00;;;24.97;;
4424;SDS011;2225;53.568;13.266;2023-02-15T03:17:43;61.47;;;26.60;;
4424;SDS011;2225;53.568;13.266;2023-02-15T03:20:23;55.00;;;26.37;;
4424;SDS011;2225;53.568;13.266;2023-02-15T03:23:03;65.73;;;26.57;;
4424;SDS011;2225;53.568;13.266;2023-02-15T03:25:34;61.50;;;26.97;;
4424;SDS011;2225;53.568;13.266;2023-02-15T03:28:07;58.60;;;27.63;;
4424;SDS011;2225;53.568;13.266;2023-02-15T03:30:39;66.90;;;28.37;;
4424;SDS011;2225;53.568;13.266;2023-02-15T03:33:08;64.97;;;27.83;;
4424;SDS011;2225;53.568;13.266;2023-02-15T03:35:39;63.93;;;28.57;;
4424;SDS011;2225;53.568;13.266;2023-02-15T03:38:26;59.83;;;28.00;;
4424;SDS011;2225;53.568;13.266;2023-02-15T03:41:00;54.50;;;26.77;;
4424;SDS011;2225;53.568;13.266;2023-02-15T03:46:12;57.73;;;28.07;;
4424;SDS011;2225;53.568;13.266;2023-02-15T03:48:52;53.47;;;25.90;;
4424;SDS011;2225;53.568;13.266;2023-02-15T03:51:34;57.63;;;24.83;;
4424;SDS011;2225;53.568;13.266;2023-02-15T03:54:08;64.60;;;27.70;;
4424;SDS011;2225;53.568;13.266;2023-02-15T03:57:03;58.23;;;27.10;;
4424;SDS011;2225;53.568;13.266;2023-02-15T03:59:59;59.63;;;28.50;;
4424;SDS011;2225;53.568;13.266;2023-02-15T04:02:57;62.50;;;27.80;;
4424;SDS011;2225;53.568;13.266;2023-02-15T04:05:42;56.70;;;27.20;;
4424;SDS011;2225;53.568;13.266;2023-02-15T04:08:10;59.63;;;26.80;;
4424;SDS011;2225;53.568;13.266;2023-02-15T04:10:38;62.23;;;27.87;;
4424;SDS011;2225;53.568;13.266;2023-02-15T04:13:31;59.97;;;27.17;;
4424;SDS011;2225;53.568;13.266;2023-02-15T04:15:58;67.93;;;28.97;;
4424;SDS011;2225;53.568;13.266;2023-02-15T04:18:42;62.90;;;28.67;;
4424;SDS011;2225;53.568;13.266;2023-02-15T04:21:29;54.07;;;26.50;;
4424;SDS011;2225;53.568;13.266;2023-02-15T04:24:15;58.47;;;27.50;;
4424;SDS011;2225;53.568;13.266;2023-02-15T04:27:01;57.83;;;27.27;;
4424;SDS011;2225;53.568;13.266;2023-02-15T04:29:29;65.00;;;27.13;;
4424;SDS011;2225;53.568;13.266;2023-02-15T04:31:58;59.70;;;28.77;;
4424;SDS011;2225;53.568;13.266;2023-02-15T04:34:27;59.83;;;26.83;;
4424;SDS011;2225;53.568;13.266;2023-02-15T04:36:53;69.80;;;28.27;;
4424;SDS011;2225;53.568;13.266;2023-02-15T04:39:20;59.73;;;27.40;;
4424;SDS011;2225;53.568;13.266;2023-02-15T04:41:47;59.27;;;26.57;;
4424;SDS011;2225;53.568;13.266;2023-02-15T04:44:14;58.03;;;27.33;;
4424;SDS011;2225;53.568;13.266;2023-02-15T04:46:41;67.60;;;29.50;;
4424;SDS011;2225;53.568;13.266;2023-02-15T04:49:08;68.73;;;33.43;;
4424;SDS011;2225;53.568;13.266;2023-02-15T04:51:35;69.13;;;29.90;;
4424;SDS011;2225;53.568;13.266;2023-02-15T04:54:02;69.97;;;31.53;;
4424;SDS011;2225;53.568;13.266;2023-02-15T04:56:29;71.63;;;32.90;;
4424;SDS011;2225;53.568;13.266;2023-02-15T04:58:57;64.20;;;30.53;;
4424;SDS011;2225;53.568;13.266;2023-02-15T05:01:24;73.93;;;31.47;;
4424;SDS011;2225;53.568;13.266;2023-02-15T05:03:51;69.70;;;30.80;;
4424;SDS011;2225;53.568;13.266;2023-02-15T05:06:18;62.47;;;29.30;;
4424;SDS011;2225;53.568;13.266;2023-02-15T05:08:45;64.93;;;30.83;;
4424;SDS011;2225;53.568;13.266;2023-02-15T05:11:12;59.50;;;28.27;;
4424;SDS011;2225;53.568;13.266;2023-02-15T05:13:39;64.97;;;30.00;;
4424;SDS011;2225;53.568;13.266;2023-02-15T05:16:06;60.13;;;26.90;;
4424;SDS011;2225;53.568;13.266;2023-02-15T05:18:33;67.60;;;31.50;;
4424;SDS011;2225;53.568;13.266;2023-02-15T05:21:00;57.83;;;28.23;;
4424;SDS011;2225;53.568;13.266;2023-02-15T05:23:27;73.70;;;32.20;;
4424;SDS011;2225;53.568;13.266;2023-02-15T05:25:54;64.47;;;28.73;;
4424;SDS011;2225;53.568;13.266;2023-02-15T05:28:39;68.00;;;30.90;;
4424;SDS011;2225;53.568;13.266;2023-02-15T05:31:40;63.63;;;28.73;;
4424;SDS011;2225;53.568;13.266;2023-02-15T05:34:00;73.43;;;31.27;;
4424;SDS011;2225;53.568;13.266;2023-02-15T05:36:27;66.27;;;27.90;;
4424;SDS011;2225;53.568;13.266;2023-02-15T05:38:55;64.63;;;29.30;;
4424;SDS011;2225;53.568;13.266;2023-02-15T05:41:22;62.67;;;27.47;;
4424;SDS011;2225;53.568;13.266;2023-02-15T05:43:49;60.50;;;29.03;;
4424;SDS011;2225;53.568;13.266;2023-02-15T05:46:16;63.57;;;30.40;;
4424;SDS011;2225;53.568;13.266;2023-02-15T05:48:42;70.00;;;29.53;;
4424;SDS011;2225;53.568;13.266;2023-02-15T05:51:11;67.20;;;30.50;;
4424;SDS011;2225;53.568;13.266;2023-02-15T05:53:40;75.97;;;33.73;;
4424;SDS011;2225;53.568;13.266;2023-02-15T05:56:08;65.70;;;30.20;;
4424;SDS011;2225;53.568;13.266;2023-02-15T05:58:37;59.40;;;27.70;;
4424;SDS011;2225;53.568;13.266;2023-02-15T06:01:10;68.63;;;31.03;;
4424;SDS011;2225;53.568;13.266;2023-02-15T06:03:43;63.67;;;29.60;;
4424;SDS011;2225;53.568;13.266;2023-02-15T06:06:11;92.13;;;30.53;;
4424;SDS011;2225;53.568;13.266;2023-02-15T06:08:38;65.73;;;30.10;;
4424;SDS011;2225;53.568;13.266;2023-02-15T06:11:05;79.90;;;31.60;;
4424;SDS011;2225;53.568;13.266;2023-02-15T06:13:33;75.57;;;31.40;;
4424;SDS011;2225;53.568;13.266;2023-02-15T06:16:04;70.40;;;31.93;;
4424;SDS011;2225;53.568;13.266;2023-02-15T06:18:32;67.87;;;32.50;;
4424;SDS011;2225;53.568;13.266;2023-02-15T06:20:59;69.43;;;32.20;;
4424;SDS011;2225;53.568;13.266;2023-02-15T06:23:26;71.37;;;32.03;;
4424;SDS011;2225;53.568;13.266;2023-02-15T06:25:53;70.37;;;32.50;;
4424;SDS011;2225;53.568;13.266;2023-02-15T06:28:20;79.40;;;31.33;;
4424;SDS011;2225;53.568;13.266;2023-02-15T06:30:47;89.70;;;33.27;;
4424;SDS011;2225;53.568;13.266;2023-02-15T06:33:14;123.63;;;34.30;;
4424;SDS011;2225;53.568;13.266;2023-02-15T06:35:41;102.53;;;34.53;;
4424;SDS011;2225;53.568;13.266;2023-02-15T06:38:07;111.13;;;30.50;;
4424;SDS011;2225;53.568;13.266;2023-02-15T06:40:34;106.60;;;33.47;;
4424;SDS011;2225;53.568;13.266;2023-02-15T06:43:01;120.27;;;31.60;;
4424;SDS011;2225;53.568;13.266;2023-02-15T06:45:28;75.43;;;32.70;;
4424;SDS011;2225;53.568;13.266;2023-02-15T06:47:55;98.30;;;33.50;;
4424;SDS011;2225;53.568;13.266;2023-02-15T06:50:22;99.53;;;33.20;;
4424;SDS011;2225;53.568;13.266;2023-02-15T06:52:49;109.20;;;33.27;;
4424;SDS011;2225;53.568;13.266;2023-02-15T06:55:21;77.40;;;34.13;;
4424;SDS011;2225;53.568;13.266;2023-02-15T06:57:48;106.90;;;34.20;;
4424;SDS011;2225;53.568;13.266;2023-02-15T07:00:16;108.47;;;34.10;;
4424;SDS011;2225;53.568;13.266;2023-02-15T07:02:44;189.20;;;38.60;;
4424;SDS011;2225;53.568;13.266;2023-02-15T07:05:11;136.50;;;35.90;;
4424;SDS011;2225;53.568;13.266;2023-02-15T07:07:38;124.60;;;34.13;;
4424;SDS011;2225;53.568;13.266;2023-02-15T07:10:05;135.87;;;34.00;;
4424;SDS011;2225;53.568;13.266;2023-02-15T07:12:32;164.80;;;34.60;;
4424;SDS011;2225;53.568;13.266;2023-02-15T07:15:09;114.83;;;33.73;;
4424;SDS011;2225;53.568;13.266;2023-02-15T07:17:41;94.53;;;30.80;;
4424;SDS011;2225;53.568;13.266;2023-02-15T07:20:16;120.00;;;34.20;;
4424;SDS011;2225;53.568;13.266;2023-02-15T07:22:46;135.67;;;33.57;;
4424;SDS011;2225;53.568;13.266;2023-02-15T07:25:13;87.00;;;34.13;;
4424;SDS011;2225;53.568;13.266;2023-02-15T07:27:40;72.73;;;32.00;;
4424;SDS011;2225;53.568;13.266;2023-02-15T07:30:09;102.73;;;33.50;;
4424;SDS011;2225;53.568;13.266;2023-02-15T07:32:38;73.53;;;31.13;;
4424;SDS011;2225;53.568;13.266;2023-02-15T07:35:27;76.13;;;34.60;;
4424;SDS011;2225;53.568;13.266;2023-02-15T07:37:54;90.60;;;33.07;;
4424;SDS011;2225;53.568;13.266;2023-02-15T07:40:21;72.70;;;32.13;;
4424;SDS011;2225;53.568;13.266;2023-02-15T07:42:50;124.03;;;37.00;;
4424;SDS011;2225;53.568;13.266;2023-02-15T07:45:21;79.87;;;34.70;;
4424;SDS011;2225;53.568;13.266;2023-02-15T07:47:48;89.27;;;36.27;;
4424;SDS011;2225;53.568;13.266;2023-02-15T07:50:15;99.87;;;35.07;;
4424;SDS011;2225;53.568;13.266;2023-02-15T07:52:42;90.93;;;35.57;;
4424;SDS011;2225;53.568;13.266;2023-02-15T07:55:09;90.00;;;35.50;;
4424;SDS011;2225;53.568;13.266;2023-02-15T07:57:45;81.93;;;35.23;;
4424;SDS011;2225;53.568;13.266;2023-02-15T08:00:13;96.97;;;36.47;;
4424;SDS011;2225;53.568;13.266;2023-02-15T08:02:49;86.67;;;36.40;;
4424;SDS011;2225;53.568;13.266;2023-02-15T08:05:39;83.43;;;36.57;;
4424;SDS011;2225;53.568;13.266;2023-02-15T08:08:07;77.27;;;35.97;;
4424;SDS011;2225;53.568;13.266;2023-02-15T08:10:59;83.17;;;37.20;;
4424;SDS011;2225;53.568;13.266;2023-02-15T08:13:57;82.73;;;35.77;;
4424;SDS011;2225;53.568;13.266;2023-02-15T08:16:30;85.20;;;36.07;;
4424;SDS011;2225;53.568;13.266;2023-02-15T08:19:12;93.17;;;39.70;;
4424;SDS011;2225;53.568;13.266;2023-02-15T08:21:49;88.30;;;36.30;;
4424;SDS011;2225;53.568;13.266;2023-02-15T08:24:19;81.30;;;38.03;;
4424;SDS011;2225;53.568;13.266;2023-02-15T08:26:48;86.00;;;37.13;;
4424;SDS011;2225;53.568;13.266;2023-02-15T08:29:17;77.03;;;36.23;;
4424;SDS011;2225;53.568;13.266;2023-02-15T08:31:49;84.33;;;38.23;;
4424;SDS011;2225;53.568;13.266;2023-02-15T08:34:20;76.23;;;36.90;;
4424;SDS011;2225;53.568;13.266;2023-02-15T08:36:47;91.53;;;38.33;;
4424;SDS011;2225;53.568;13.266;2023-02-15T08:39:14;88.80;;;40.00;;
4424;SDS011;2225;53.568;13.266;2023-02-15T08:41:42;83.07;;;39.80;;
4424;SDS011;2225;53.568;13.266;2023-02-15T08:44:12;95.33;;;42.70;;
4424;SDS011;2225;53.568;13.266;2023-02-15T08:46:41;85.80;;;39.60;;
4424;SDS011;2225;53.568;13.266;2023-02-15T08:49:11;79.57;;;38.07;;
4424;SDS011;2225;53.568;13.266;2023-02-15T08:51:44;81.00;;;41.80;;
4424;SDS011;2225;53.568;13.266;2023-02-15T08:54:12;92.20;;;40.97;;
4424;SDS011;2225;53.568;13.266;2023-02-15T08:56:42;79.83;;;36.87;;
4424;SDS011;2225;53.568;13.266;2023-02-15T08:59:14;82.00;;;37.90;;
4424;SDS011;2225;53.568;13.266;2023-02-15T09:01:46;80.33;;;38.13;;
4424;SDS011;2225;53.568;13.266;2023-02-15T09:04:16;80.67;;;36.67;;
4424;SDS011;2225;53.568;13.266;2023-02-15T09:06:44;70.90;;;36.20;;
4424;SDS011;2225;53.568;13.266;2023-02-15T09:09:14;72.60;;;35.20;;
4424;SDS011;2225;53.568;13.266;2023-02-15T09:11:43;79.40;;;38.07;;
4424;SDS011;2225;53.568;13.266;2023-02-15T09:14:17;88.53;;;36.43;;
4424;SDS011;2225;53.568;13.266;2023-02-15T09:16:51;90.70;;;39.87;;
4424;SDS011;2225;53.568;13.266;2023-02-15T09:19:20;84.73;;;37.80;;
4424;SDS011;2225;53.568;13.266;2023-02-15T09:21:48;85.60;;;38.00;;
4424;SDS011;2225;53.568;13.266;2023-02-15T09:24:15;73.40;;;33.77;;
4424;SDS011;2225;53.568;13.266;2023-02-15T09:26:44;76.90;;;36.30;;
4424;SDS011;2225;53.568;13.266;2023-02-15T09:29:13;79.30;;;37.17;;
4424;SDS011;2225;53.568;13.266;2023-02-15T09:31:43;75.07;;;35.33;;
4424;SDS011;2225;53.568;13.266;2023-02-15T09:34:12;77.50;;;37.10;;
4424;SDS011;2225;53.568;13.266;2023-02-15T09:36:44;85.90;;;39.27;;
4424;SDS011;2225;53.568;13.266;2023-02-15T09:41:49;84.37;;;38.03;;
4424;SDS011;2225;53.568;13.266;2023-02-15T09:50:37;85.53;;;38.63;;
4424;SDS011;2225;53.568;13.266;2023-02-15T09:54:01;85.40;;;39.83;;
4424;SDS011;2225;53.568;13.266;2023-02-15T09:56:48;80.57;;;38.13;;
4424;SDS011;2225;53.568;13.266;2023-02-15T10:02:15;88.83;;;42.43;;
4424;SDS011;2225;53.568;13.266;2023-02-15T10:05:24;86.57;;;40.27;;
4424;SDS011;2225;53.568;13.266;2023-02-15T10:10:47;85.90;;;38.30;;
4424;SDS011;2225;53.568;13.266;2023-02-15T10:17:01;90.03;;;40.53;;
4424;SDS011;2225;53.568;13.266;2023-02-15T10:19:55;90.07;;;40.43;;
4424;SDS011;2225;53.568;13.266;2023-02-15T10:22:48;80.93;;;38.97;;
4424;SDS011;2225;53.568;13.266;2023-02-15T10:29:02;80.73;;;38.90;;
4424;SDS011;2225;53.568;13.266;2023-02-15T10:31:48;74.53;;;36.43;;
4424;SDS011;2225;53.568;13.266;2023-02-15T10:34:38;71.00;;;34.60;;
4424;SDS011;2225;53.568;13.266;2023-02-15T10:37:26;79.17;;;36.80;;
4424;SDS011;2225;53.568;13.266;2023-02-15T10:45:49;77.33;;;37.27;;
4424;SDS011;2225;53.568;13.266;2023-02-15T10:51:40;77.03;;;39.00;;
4424;SDS011;2225;53.568;13.266;2023-02-15T10:54:45;91.70;;;42.67;;
4424;SDS011;2225;53.568;13.266;2023-02-15T11:00:21;79.37;;;40.57;;
4424;SDS011;2225;53.568;13.266;2023-02-15T11:03:24;83.43;;;42.27;;
4424;SDS011;2225;53.568;13.266;2023-02-15T11:06:07;89.10;;;41.77;;
4424;SDS011;2225;53.568;13.266;2023-02-15T11:08:41;82.17;;;42.20;;
4424;SDS011;2225;53.568;13.266;2023-02-15T11:11:28;81.93;;;40.77;;
4424;SDS011;2225;53.568;13.266;2023-02-15T11:16:49;76.30;;;38.83;;
4424;SDS011;2225;53.568;13.266;2023-02-15T11:19:31;86.07;;;41.50;;
4424;SDS011;2225;53.568;13.266;2023-02-15T11:22:20;82.20;;;39.93;;
4424;SDS011;2225;53.568;13.266;2023-02-15T11:24:48;86.23;;;41.97;;
4424;SDS011;2225;53.568;13.266;2023-02-15T11:27:19;79.47;;;38.77;;
4424;SDS011;2225;53.568;13.266;2023-02-15T11:32:40;69.93;;;36.23;;
4424;SDS011;2225;53.568;13.266;2023-02-15T11:37:48;86.80;;;43.00;;
4424;SDS011;2225;53.568;13.266;2023-02-15T11:40:28;81.00;;;42.80;;
4424;SDS011;2225;53.568;13.266;2023-02-15T11:43:05;88.53;;;42.80;;
4424;SDS011;2225;53.568;13.266;2023-02-15T11:45:44;85.67;;;41.00;;
4424;SDS011;2225;53.568;13.266;2023-02-15T11:48:13;80.60;;;41.03;;
4424;SDS011;2225;53.568;13.266;2023-02-15T11:50:41;84.40;;;40.40;;
4424;SDS011;2225;53.568;13.266;2023-02-15T11:53:15;84.07;;;40.77;;
4424;SDS011;2225;53.568;13.266;2023-02-15T11:55:50;79.30;;;41.23;;
4424;SDS011;2225;53.568;13.266;2023-02-15T12:00:56;81.00;;;40.33;;
4424;SDS011;2225;53.568;13.266;2023-02-15T12:07:11;76.93;;;43.20;;
4424;SDS011;2225;53.568;13.266;2023-02-15T12:10:05;87.37;;;43.93;;
4424;SDS011;2225;53.568;13.266;2023-02-15T12:15:44;79.87;;;42.40;;
4424;SDS011;2225;53.568;13.266;2023-02-15T12:18:18;80.97;;;39.97;;
4424;SDS011;2225;53.568;13.266;2023-02-15T12:21:15;87.80;;;41.47;;
4424;SDS011;2225;53.568;13.266;2023-02-15T12:26:55;86.87;;;42.10;;
4424;SDS011;2225;53.568;13.266;2023-02-15T12:29:25;76.57;;;39.03;;
4424;SDS011;2225;53.568;13.266;2023-02-15T12:31:57;75.33;;;37.80;;
4424;SDS011;2225;53.568;13.266;2023-02-15T12:34:26;87.23;;;43.47;;
4424;SDS011;2225;53.568;13.266;2023-02-15T12:37:00;85.83;;;42.67;;
4424;SDS011;2225;53.568;13.266;2023-02-15T12:39:52;86.40;;;43.07;;
4424;SDS011;2225;53.568;13.266;2023-02-15T12:42:24;92.73;;;46.63;;
4424;SDS011;2225;53.568;13.266;2023-02-15T12:45:19;92.03;;;44.83;;
4424;SDS011;2225;53.568;13.266;2023-02-15T12:48:10;88.53;;;46.57;;
4424;SDS011;2225;53.568;13.266;2023-02-15T12:50:49;78.80;;;40.63;;
4424;SDS011;2225;53.568;13.266;2023-02-15T12:53:30;85.00;;;42.10;;
4424;SDS011;2225;53.568;13.266;2023-02-15T12:56:00;87.33;;;42.57;;
4424;SDS011;2225;53.568;13.266;2023-02-15T12:58:30;83.87;;;42.97;;
4424;SDS011;2225;53.568;13.266;2023-02-15T13:03:35;91.60;;;42.77;;
4424;SDS011;2225;53.568;13.266;2023-02-15T13:06:17;75.10;;;38.77;;
4424;SDS011;2225;53.568;13.266;2023-02-15T13:08:49;76.03;;;38.53;;
4424;SDS011;2225;53.568;13.266;2023-02-15T13:11:22;86.30;;;44.10;;
4424;SDS011;2225;53.568;13.266;2023-02-15T13:13:58;88.07;;;44.70;;
4424;SDS011;2225;53.568;13.266;2023-02-15T13:16:41;93.40;;;45.00;;
4424;SDS011;2225;53.568;13.266;2023-02-15T13:19:22;79.17;;;42.50;;
4424;SDS011;2225;53.568;13.266;2023-02-15T13:22:05;92.40;;;42.27;;
4424;SDS011;2225;53.568;13.266;2023-02-15T13:24:40;81.43;;;39.97;;
4424;SDS011;2225;53.568;13.266;2023-02-15T13:27:18;77.27;;;40.20;;
4424;SDS011;2225;53.568;13.266;2023-02-15T13:29:49;80.97;;;41.97;;
4424;SDS011;2225;53.568;13.266;2023-02-15T13:32:28;73.17;;;39.30;;
4424;SDS011;2225;53.568;13.266;2023-02-15T13:35:03;80.20;;;40.07;;
4424;SDS011;2225;53.568;13.266;2023-02-15T13:43:38;68.57;;;36.53;;
4424;SDS011;2225;53.568;13.266;2023-02-15T13:49:07;65.23;;;35.57;;
4424;SDS011;2225;53.568;13.266;2023-02-15T13:51:48;60.90;;;35.13;;
4424;SDS011;2225;53.568;13.266;2023-02-15T14:01:20;58.40;;;34.30;;
4424;SDS011;2225;53.568;13.266;2023-02-15T14:04:18;58.97;;;33.00;;
4424;SDS011;2225;53.568;13.266;2023-02-15T14:07:33;56.83;;;32.20;;
4424;SDS011;2225;53.568;13.266;2023-02-15T14:10:24;52.87;;;31.60;;
4424;SDS011;2225;53.568;13.266;2023-02-15T14:13:28;56.03;;;30.73;;
4424;SDS011;2225;53.568;13.266;2023-02-15T14:19:43;50.77;;;28.50;;
4424;SDS011;2225;53.568;13.266;2023-02-15T14:22:07;50.17;;;26.83;;
4424;SDS011;2225;53.568;13.266;2023-02-15T14:28:14;50.70;;;28.00;;
4424;SDS011;2225;53.568;13.266;2023-02-15T14:31:08;51.90;;;28.97;;
4424;SDS011;2225;53.568;13.266;2023-02-15T14:33:39;48.30;;;29.10;;
4424;SDS011;2225;53.568;13.266;2023-02-15T14:36:15;53.10;;;28.90;;
4424;SDS011;2225;53.568;13.266;2023-02-15T14:39:03;53.63;;;28.77;;
4424;SDS011;2225;53.568;13.266;2023-02-15T14:42:11;48.23;;;27.60;;
4424;SDS011;2225;53.568;13.266;2023-02-15T14:44:48;54.30;;;30.77;;
4424;SDS011;2225;53.568;13.266;2023-02-15T14:47:31;49.70;;;24.20;;
4424;SDS011;2225;53.568;13.266;2023-02-15T14:56:13;54.13;;;29.10;;
4424;SDS011;2225;53.568;13.266;2023-02-15T15:01:15;46.17;;;26.87;;
4424;SDS011;2225;53.568;13.266;2023-02-15T15:04:01;53.70;;;28.23;;
4424;SDS011;2225;53.568;13.266;2023-02-15T15:06:39;49.30;;;26.80;;
4424;SDS011;2225;53.568;13.266;2023-02-15T15:09:10;53.57;;;29.60;;
4424;SDS011;2225;53.568;13.266;2023-02-15T15:11:47;57.47;;;29.47;;
4424;SDS011;2225;53.568;13.266;2023-02-15T15:16:59;55.97;;;29.73;;
4424;SDS011;2225;53.568;13.266;2023-02-15T15:20:13;51.60;;;28.93;;
4424;SDS011;2225;53.568;13.266;2023-02-15T15:22:20;51.50;;;27.40;;
4424;SDS011;2225;53.568;13.266;2023-02-15T15:24:54;58.20;;;32.00;;
4424;SDS011;2225;53.568;13.266;2023-02-15T15:27:46;64.67;;;33.00;;
4424;SDS011;2225;53.568;13.266;2023-02-15T15:41:39;68.60;;;34.20;;
4424;SDS011;2225;53.568;13.266;2023-02-15T15:47:34;70.50;;;34.60;;
4424;SDS011;2225;53.568;13.266;2023-02-15T15:50:19;69.43;;;34.70;;
4424;SDS011;2225;53.568;13.266;2023-02-15T15:52:47;69.77;;;34.63;;
4424;SDS011;2225;53.568;13.266;2023-02-15T15:55:24;81.27;;;35.60;;
4424;SDS011;2225;53.568;13.266;2023-02-15T15:57:59;66.83;;;33.40;;
4424;SDS011;2225;53.568;13.266;2023-02-15T16:00:35;60.90;;;30.30;;
4424;SDS011;2225;53.568;13.266;2023-02-15T16:03:21;62.57;;;32.47;;
4424;SDS011;2225;53.568;13.266;2023-02-15T16:05:50;66.47;;;32.87;;
4424;SDS011;2225;53.568;13.266;2023-02-15T16:08:35;64.63;;;32.03;;
4424;SDS011;2225;53.568;13.266;2023-02-15T16:11:25;67.50;;;34.37;;
4424;SDS011;2225;53.568;13.266;2023-02-15T16:13:55;67.83;;;31.37;;
4424;SDS011;2225;53.568;13.266;2023-02-15T16:16:26;62.90;;;32.07;;
4424;SDS011;2225;53.568;13.266;2023-02-15T16:18:58;59.40;;;30.93;;
4424;SDS011;2225;53.568;13.266;2023-02-15T16:21:30;65.23;;;32.33;;
4424;SDS011;2225;53.568;13.266;2023-02-15T16:24:24;63.40;;;31.57;;
4424;SDS011;2225;53.568;13.266;2023-02-15T16:27:29;66.33;;;33.57;;
4424;SDS011;2225;53.568;13.266;2023-02-15T16:30:16;60.50;;;31.63;;
4424;SDS011;2225;53.568;13.266;2023-02-15T16:32:48;59.83;;;29.60;;
4424;SDS011;2225;53.568;13.266;2023-02-15T16:35:19;64.70;;;32.10;;
4424;SDS011;2225;53.568;13.266;2023-02-15T16:37:47;68.20;;;32.83;;
4424;SDS011;2225;53.568;13.266;2023-02-15T16:42:50;74.03;;;33.00;;
4424;SDS011;2225;53.568;13.266;2023-02-15T16:45:20;73.13;;;35.93;;
4424;SDS011;2225;53.568;13.266;2023-02-15T16:47:51;68.03;;;33.67;;
4424;SDS011;2225;53.568;13.266;2023-02-15T16:50:23;66.00;;;33.10;;
4424;SDS011;2225;53.568;13.266;2023-02-15T16:52:56;76.20;;;34.33;;
4424;SDS011;2225;53.568;13.266;2023-02-15T16:55:25;64.73;;;31.27;;
4424;SDS011;2225;53.568;13.266;2023-02-15T16:57:55;65.40;;;29.97;;
4424;SDS011;2225;53.568;13.266;2023-02-15T17:00:28;56.17;;;28.37;;
4424;SDS011;2225;53.568;13.266;2023-02-15T17:05:49;60.63;;;30.30;;
4424;SDS011;2225;53.568;13.266;2023-02-15T17:14:10;65.83;;;33.40;;
4424;SDS011;2225;53.568;13.266;2023-02-15T17:19:16;71.37;;;31.20;;
4424;SDS011;2225;53.568;13.266;2023-02-15T17:21:56;60.23;;;30.37;;
4424;SDS011;2225;53.568;13.266;2023-02-15T17:26:57;60.23;;;30.83;;
4424;SDS011;2225;53.568;13.266;2023-02-15T17:29:30;57.50;;;28.03;;
4424;SDS011;2225;53.568;13.266;2023-02-15T17:32:12;73.17;;;33.63;;
4424;SDS011;2225;53.568;13.266;2023-02-15T17:40:26;65.60;;;31.30;;